Time;durP1;ratioP1;P1;durP2;ratioP2;P2;SDS_P1;SDS_P2;PMS_P1;PMS_P2;Temp;Humidity;BMP_temperature;BMP_pressure;BME280_temperature;BME280_humidity;BME280_pressure;Samples;Min_cycle;Max_cycle;Signal;HPM_P1;HPM_P2
2022/02/02 00:00:20;;;;;;;;;;;;;;;10.72;77.51;101220.59;6227014;23;19907;-74
2022/02/02 00:02:57;;;;;;;;;;;;;;;10.69;78.02;101224.69;6228583;23;19914;-75
2022/02/02 00:05:36;;;;;;;;;;;;;;;10.64;77.80;101238.25;6229443;23;19912;-74
2022/02/02 00:08:07;;;;;;;;;;;;;;;10.69;78.13;101242.97;6230932;23;19916;-74
2022/02/02 00:13:15;;;;;;;;;;;;;;;10.64;77.99;101247.31;6253187;23;19930;-77
2022/02/02 00:16:03;;;;;;;;;;;;;;;10.63;77.92;101256.59;6222187;23;19907;-74
2022/02/02 00:18:53;;;;;;;;;;;;;;;10.55;78.30;101265.19;6203380;23;19919;-75
2022/02/02 00:21:27;;;;;;;;;;;;;;;10.48;78.39;101265.34;6223755;23;19958;-76
2022/02/02 00:24:30;;;;;;;;;;;;;;;10.50;78.24;101267.84;6225512;23;19915;-73
2022/02/02 00:27:18;;;;;;;;;;;;;;;10.52;78.66;101267.59;6252764;23;19908;-74
2022/02/02 00:29:49;;;;;;;;;;;;;;;10.46;78.95;101272.13;6222004;23;19926;-76
2022/02/02 00:35:04;;;;;;;;;;;;;;;10.40;78.97;101262.16;6203384;23;19907;-74
2022/02/02 00:37:30;;;;;;;;;;;;;;;10.44;78.96;101252.38;6251285;23;19911;-72
2022/02/02 00:39:55;;;;;;;;;;;;;;;10.44;79.40;101258.69;6247124;23;20006;-72
2022/02/02 00:42:20;;;;;;;;;;;;;;;10.48;78.89;101259.03;6249446;23;20004;-73
2022/02/02 00:44:49;;;;;;;;;;;;;;;10.47;79.00;101260.13;6246245;23;19916;-70
2022/02/02 00:47:22;;;;;;;;;;;;;;;10.52;78.61;101264.84;6214669;23;19915;-70
2022/02/02 00:49:48;;;;;;;;;;;;;;;10.51;79.00;101254.97;6245402;23;19916;-70
2022/02/02 00:52:14;;;;;;;;;;;;;;;10.49;79.00;101255.22;6247135;23;19946;-72
2022/02/02 00:54:39;;;;;;;;;;;;;;;10.49;78.63;101255.22;6245273;23;19908;-71
2022/02/02 00:57:05;;;;;;;;;;;;;;;10.42;78.86;101249.88;6217097;23;19922;-70
2022/02/02 00:59:30;;;;;;;;;;;;;;;10.38;79.42;101250.63;6218182;23;19911;-69
2022/02/02 01:01:55;;;;;;;;;;;;;;;10.37;79.29;101246.25;6216065;23;19908;-71
2022/02/02 01:04:21;;;;;;;;;;;;;;;10.37;79.39;101252.53;6215219;23;19911;-71
2022/02/02 01:07:14;;;;;;;;;;;;;;;10.31;79.48;101242.56;6240672;23;19911;-70
2022/02/02 01:10:02;;;;;;;;;;;;;;;10.27;79.17;101244.13;6217138;23;19959;-69
2022/02/02 01:17:59;;;;;;;;;;;;;;;10.27;78.95;101247.66;6198301;23;19915;-71
2022/02/02 01:28:53;;;;;;;;;;;;;;;10.20;79.29;101236.06;6245268;23;19914;-69
2022/02/02 01:31:19;;;;;;;;;;;;;;;10.17;78.84;101224.78;6216987;23;19912;-70
2022/02/02 01:33:47;;;;;;;;;;;;;;;10.12;79.07;101220.06;6243276;23;19922;-71
2022/02/02 01:36:12;;;;;;;;;;;;;;;10.09;79.07;101223.25;6242907;23;20612;-72
2022/02/02 01:38:38;;;;;;;;;;;;;;;10.04;79.12;101236.81;6217449;23;19943;-71
2022/02/02 01:41:08;;;;;;;;;;;;;;;10.01;79.29;101220.94;6242059;23;19912;-71
2022/02/02 01:43:41;;;;;;;;;;;;;;;10.03;79.10;101224.22;6242239;23;20381;-70
2022/02/02 01:46:13;;;;;;;;;;;;;;;10.00;79.43;101216.53;6241104;23;20285;-69
2022/02/02 01:54:53;;;;;;;;;;;;;;;10.00;79.40;101235.66;6254058;23;19907;-71
2022/02/02 01:56:48;;;;;;;;;;;;;;;9.94;79.49;101238.28;6209280;23;20064;-71
2022/02/02 01:59:27;;;;;;;;;;;;;;;9.90;79.14;101228.91;6215641;23;19943;-70
2022/02/02 02:01:53;;;;;;;;;;;;;;;9.89;79.19;101229.97;6213770;23;19919;-71
2022/02/02 02:04:18;;;;;;;;;;;;;;;9.94;78.91;101224.63;6241254;23;19911;-71
2022/02/02 02:06:44;;;;;;;;;;;;;;;9.89;79.12;101240.91;6243827;23;20333;-72
2022/02/02 02:09:12;;;;;;;;;;;;;;;9.83;79.80;101230.09;6244114;23;19908;-71
2022/02/02 02:11:42;;;;;;;;;;;;;;;9.75;79.94;101234.91;6246699;23;20115;-71
2022/02/02 02:17:10;;;;;;;;;;;;;;;9.72;80.05;101245.47;6065863;23;19918;-70
2022/02/02 02:19:38;;;;;;;;;;;;;;;9.78;80.21;101236.28;6209838;23;19994;-71
2022/02/02 02:22:08;;;;;;;;;;;;;;;9.80;80.03;101236.91;6223825;23;19914;-71
2022/02/02 02:24:36;;;;;;;;;;;;;;;9.71;80.21;101232.88;6216610;23;19978;-70
2022/02/02 02:27:01;;;;;;;;;;;;;;;9.70;79.82;101228.50;6219086;23;20255;-69
2022/02/02 02:56:16;;;;;;;;;;;;;;;9.79;79.24;101224.31;6243542;23;19962;-71
2022/02/02 02:59:34;;;;;;;;;;;;;;;9.75;79.03;101217.66;6219828;23;19911;-70
2022/02/02 03:31:32;;;;;;;;;;;;;;;9.67;79.90;101248.09;6244516;23;20314;-71
2022/02/02 03:58:44;;;;;;;;;;;;;;;9.35;82.59;101218.44;6251949;23;19911;-71
2022/02/02 04:06:16;;;;;;;;;;;;;;;9.31;82.35;101222.72;6254014;23;19969;-70
2022/02/02 04:08:41;;;;;;;;;;;;;;;9.28;82.49;101217.72;6244979;23;19950;-71
2022/02/02 04:11:17;;;;;;;;;;;;;;;9.28;82.57;101215.00;6244882;23;19912;-70
2022/02/02 04:38:53;;;;;;;;;;;;;;;8.59;83.12;101193.72;6222187;23;19954;-70
2022/02/02 04:55:25;;;;;;;;;;;;;;;8.30;84.00;101174.41;6246387;23;19938;-71
2022/02/02 05:08:16;;;;;;;;;;;;;;;8.42;84.15;101193.53;6264537;23;19913;-71
2022/02/02 05:10:57;;;;;;;;;;;;;;;8.42;84.34;101205.25;6225333;23;19919;-71
2022/02/02 05:50:36;;;;;;;;;;;;;;;9.32;79.58;101188.91;6225079;23;19923;-70
2022/02/02 05:53:02;;;;;;;;;;;;;;;9.32;79.57;101197.09;6246883;23;19927;-69
2022/02/02 05:55:33;;;;;;;;;;;;;;;9.34;79.26;101205.84;6248833;23;20242;-70
2022/02/02 05:57:59;;;;;;;;;;;;;;;9.34;79.17;101208.59;6244613;23;19994;-69
2022/02/02 06:00:26;;;;;;;;;;;;;;;9.31;79.18;101190.78;6247838;23;19912;-69
2022/02/02 06:02:54;;;;;;;;;;;;;;;9.30;78.82;101201.94;6220431;23;19911;-70
2022/02/02 06:05:22;;;;;;;;;;;;;;;9.28;78.92;101213.09;6248157;23;19912;-70
2022/02/02 06:08:01;;;;;;;;;;;;;;;9.29;78.99;101213.91;6247764;23;19986;-71
2022/02/02 06:10:26;;;;;;;;;;;;;;;9.29;78.96;101206.56;6221627;23;19912;-71
2022/02/02 06:12:54;;;;;;;;;;;;;;;9.24;78.47;101199.09;6246020;23;19994;-71
2022/02/02 06:15:20;;;;;;;;;;;;;;;9.13;78.52;101202.66;6248451;23;19931;-71
2022/02/02 06:17:50;;;;;;;;;;;;;;;8.99;78.43;101198.50;6247553;23;19918;-72
2022/02/02 06:20:15;;;;;;;;;;;;;;;8.86;78.72;101200.41;6220844;23;19959;-70
2022/02/02 06:22:52;;;;;;;;;;;;;;;8.73;79.00;101204.19;6219861;23;19915;-71
2022/02/02 06:25:22;;;;;;;;;;;;;;;8.64;78.79;101210.19;6222248;23;19908;-71
2022/02/02 06:27:58;;;;;;;;;;;;;;;8.56;79.33;101219.56;6248859;23;19913;-71
2022/02/02 06:30:26;;;;;;;;;;;;;;;8.45;79.76;101225.78;6224685;23;19914;-71
2022/02/02 06:32:54;;;;;;;;;;;;;;;8.35;80.32;101215.41;6228903;23;19912;-72
2022/02/02 06:35:21;;;;;;;;;;;;;;;8.23;81.25;101211.81;6257873;23;19934;-71
2022/02/02 06:37:47;;;;;;;;;;;;;;;8.12;82.11;101211.53;6223913;23;19959;-70
2022/02/02 06:40:14;;;;;;;;;;;;;;;8.08;82.05;101218.50;6219076;23;19907;-72
2022/02/02 06:42:40;;;;;;;;;;;;;;;7.98;82.39;101215.50;6245318;23;20243;-72
2022/02/02 06:45:06;;;;;;;;;;;;;;;7.93;83.67;101218.06;6245936;23;20374;-72
2022/02/02 06:47:32;;;;;;;;;;;;;;;7.88;83.55;101209.78;6219306;23;19922;-71
2022/02/02 06:50:10;;;;;;;;;;;;;;;7.83;83.94;101210.47;6218632;23;19965;-71
2022/02/02 06:53:24;;;;;;;;;;;;;;;7.77;84.32;101220.38;6243834;23;19907;-71
2022/02/02 06:56:02;;;;;;;;;;;;;;;7.76;83.75;101228.78;6242520;23;20326;-72
2022/02/02 06:58:57;;;;;;;;;;;;;;;7.72;84.51;101227.56;6247251;23;19918;-72
2022/02/02 07:01:45;;;;;;;;;;;;;;;7.73;83.77;101230.03;6217253;23;20281;-71
2022/02/02 07:04:28;;;;;;;;;;;;;;;7.67;83.71;101236.41;6243229;23;19912;-69
2022/02/02 07:07:08;;;;;;;;;;;;;;;7.64;83.20;101236.88;6214315;23;19911;-70
2022/02/02 07:12:49;;;;;;;;;;;;;;;7.54;83.67;101252.88;6173492;23;19990;-71
2022/02/02 07:20:44;;;;;;;;;;;;;;;7.47;83.44;101253.75;6253383;23;19908;-71
2022/02/02 07:33:22;;;;;;;;;;;;;;;7.36;83.98;101262.69;6240179;23;19986;-69
2022/02/02 07:36:28;;;;;;;;;;;;;;;7.36;83.46;101272.72;6217460;23;20284;-70
2022/02/02 07:38:45;;;;;;;;;;;;;;;7.39;83.78;101277.72;6217486;23;19922;-70
2022/02/02 07:41:24;;;;;;;;;;;;;;;7.36;83.26;101273.56;6242426;23;19919;-70
2022/02/02 07:43:52;;;;;;;;;;;;;;;7.42;83.43;101271.84;6217483;23;19908;-70
2022/02/02 07:46:25;;;;;;;;;;;;;;;7.42;83.47;101261.78;6214870;23;19912;-71
2022/02/02 07:48:50;;;;;;;;;;;;;;;7.44;82.94;101256.94;6246206;23;19911;-71
2022/02/02 07:51:16;;;;;;;;;;;;;;;7.39;82.79;101256.81;6217484;23;20267;-71
2022/02/02 07:53:46;;;;;;;;;;;;;;;7.39;82.30;101262.25;6218321;23;19911;-71
2022/02/02 07:56:15;;;;;;;;;;;;;;;7.36;82.27;101268.13;6211895;23;20358;-74
2022/02/02 07:58:44;;;;;;;;;;;;;;;7.41;82.58;101264.75;6243622;23;20042;-75
2022/02/02 08:01:12;;;;;;;;;;;;;;;7.40;82.59;101252.19;6241162;23;19977;-74
2022/02/02 08:03:41;;;;;;;;;;;;;;;7.42;82.05;101250.09;6217829;23;19911;-72
2022/02/02 08:06:08;;;;;;;;;;;;;;;7.44;81.78;101248.78;6237688;23;20281;-72
2022/02/02 08:08:36;;;;;;;;;;;;;;;7.36;81.75;101256.41;6242446;23;20307;-73
2022/02/02 08:11:06;;;;;;;;;;;;;;;7.31;81.80;101254.34;6216375;23;19929;-72
2022/02/02 08:13:40;;;;;;;;;;;;;;;7.36;81.08;101261.84;6239875;23;20019;-73
2022/02/02 08:16:09;;;;;;;;;;;;;;;7.36;81.55;101265.41;6242048;23;20296;-72
2022/02/02 08:18:37;;;;;;;;;;;;;;;7.35;81.33;101266.47;6214739;23;19922;-73
2022/02/02 08:21:04;;;;;;;;;;;;;;;7.32;81.55;101269.63;6240434;23;19908;-73
2022/02/02 08:23:30;;;;;;;;;;;;;;;7.31;80.85;101276.13;6215179;23;19912;-72
2022/02/02 08:25:58;;;;;;;;;;;;;;;7.33;80.85;101274.03;6241651;23;20007;-72
2022/02/02 08:28:24;;;;;;;;;;;;;;;7.36;81.47;101284.47;6241569;23;19918;-72
2022/02/02 08:30:50;;;;;;;;;;;;;;;7.32;81.30;101285.97;6243580;23;19908;-71
2022/02/02 08:33:21;;;;;;;;;;;;;;;7.31;81.98;101289.72;6212417;23;19908;-71
2022/02/02 08:35:53;;;;;;;;;;;;;;;7.29;81.50;101284.50;6242297;23;20011;-72
2022/02/02 08:41:01;;;;;;;;;;;;;;;7.32;81.42;101284.06;6245869;23;20249;-71
2022/02/02 08:43:32;;;;;;;;;;;;;;;7.36;81.96;101283.59;6194149;23;19912;-72
2022/02/02 08:46:05;;;;;;;;;;;;;;;7.38;81.09;101293.22;6238467;23;19961;-72
2022/02/02 08:48:31;;;;;;;;;;;;;;;7.36;81.20;101295.34;6206619;23;19912;-73
2022/02/02 08:51:02;;;;;;;;;;;;;;;7.36;81.23;101294.50;6238627;23;19963;-72
2022/02/02 08:54:18;;;;;;;;;;;;;;;7.38;82.38;101285.06;6216819;23;20293;-72
2022/02/02 08:58:49;;;;;;;;;;;;;;;7.53;81.77;101290.13;6241412;23;20218;-71
2022/02/02 09:01:22;;;;;;;;;;;;;;;7.62;81.83;101296.13;6212845;23;19924;-73
2022/02/02 09:06:31;;;;;;;;;;;;;;;7.97;81.53;101295.53;6240914;23;20341;-70
2022/02/02 09:09:18;;;;;;;;;;;;;;;8.11;81.49;101298.97;6218050;23;19992;-72
2022/02/02 09:25:21;;;;;;;;;;;;;;;12.91;68.43;101288.72;6223457;23;19935;-74
2022/02/02 09:35:42;;;;;;;;;;;;;;;14.00;66.08;101309.56;6251167;23;19907;-75
2022/02/02 09:38:08;;;;;;;;;;;;;;;14.54;64.77;101302.88;6219546;23;19920;-75
2022/02/02 09:43:29;;;;;;;;;;;;;;;;;;;;;
2022/02/02 09:46:10;;;;;;;;;;;;;;;15.41;56.65;101308.50;6245968;23;19983;-76
2022/02/02 09:48:49;;;;;;;;;;;;;;;15.57;54.80;101319.50;6244642;23;19930;-75
2022/02/02 09:51:23;;;;;;;;;;;;;;;15.37;54.34;101310.16;6221818;23;20319;-74
2022/02/02 09:54:00;;;;;;;;;;;;;;;14.97;54.37;101311.81;6223862;23;19912;-75
2022/02/02 09:59:22;;;;;;;;;;;;;;;14.49;54.50;101300.94;6224689;23;19912;-75
2022/02/02 10:01:58;;;;;;;;;;;;;;;13.91;55.46;101301.00;6248649;23;19912;-74
2022/02/02 10:09:55;;;;;;;;;;;;;;;12.82;59.58;101291.09;6261220;23;19982;-72
2022/02/02 10:15:13;;;;;;;;;;;;;;;13.71;57.77;101294.28;6261503;23;19907;-73
2022/02/02 10:17:38;;;;;;;;;;;;;;;13.77;57.15;101287.72;6254472;23;20593;-74
2022/02/02 10:20:17;;;;;;;;;;;;;;;13.95;57.22;101285.63;6254544;23;19907;-73
2022/02/02 10:22:56;;;;;;;;;;;;;;;13.83;55.80;101288.59;6255607;23;19990;-73
2022/02/02 10:25:23;;;;;;;;;;;;;;;13.38;57.15;101290.75;6255747;23;19911;-74
2022/02/02 10:27:51;;;;;;;;;;;;;;;13.20;57.46;101291.13;6257990;23;19911;-75
2022/02/02 10:30:18;;;;;;;;;;;;;;;13.16;58.37;101298.28;6230768;23;19915;-73
2022/02/02 10:32:48;;;;;;;;;;;;;;;13.50;58.09;101300.75;6255536;23;19938;-75
2022/02/02 10:35:32;;;;;;;;;;;;;;;14.24;56.89;101307.19;6226709;23;19915;-74
2022/02/02 10:38:16;;;;;;;;;;;;;;;15.18;54.52;101324.47;6254327;23;19918;-74
2022/02/02 10:41:07;;;;;;;;;;;;;;;16.15;52.98;101325.44;6254051;23;19927;-75
2022/02/02 10:43:59;;;;;;;;;;;;;;;16.87;48.73;101338.06;6256715;23;19933;-75
2022/02/02 11:11:53;;;;;;;;;;;;;;;20.45;40.23;101323.47;6134682;23;20048;-77
2022/02/02 11:18:28;;;;;;;;;;;;;;;;;;;;;
2022/02/02 11:20:54;;;;;;;;;;;;;;;20.99;37.50;101305.00;6106594;23;19972;-74
2022/02/02 11:23:21;;;;;;;;;;;;;;;20.69;37.54;101304.63;6128322;23;20309;-74
2022/02/02 11:25:58;;;;;;;;;;;;;;;20.19;39.01;101301.78;6108430;23;19947;-74
2022/02/02 11:28:28;;;;;;;;;;;;;;;19.86;39.89;101304.69;6248935;23;19911;-74
2022/02/02 11:31:05;;;;;;;;;;;;;;;19.67;40.32;101301.97;6248501;23;19908;-75
2022/02/02 11:33:41;;;;;;;;;;;;;;;19.42;40.41;101309.63;6248469;23;19912;-74
2022/02/02 11:36:16;;;;;;;;;;;;;;;18.95;41.21;101315.13;6248611;23;19918;-75
2022/02/02 11:38:43;;;;;;;;;;;;;;;18.62;42.26;101312.25;6248102;23;20424;-73
2022/02/02 11:41:25;;;;;;;;;;;;;;;18.35;42.55;101301.81;6245537;23;19931;-74
2022/02/02 11:43:59;;;;;;;;;;;;;;;18.23;43.34;101299.47;6249347;23;20254;-74
2022/02/02 11:46:40;;;;;;;;;;;;;;;18.13;43.71;101300.41;6221949;23;19981;-73
2022/02/02 11:49:13;;;;;;;;;;;;;;;17.86;43.90;101287.16;6222562;23;19911;-74
2022/02/02 11:51:41;;;;;;;;;;;;;;;17.83;44.29;101273.94;6220270;23;19931;-72
2022/02/02 11:54:08;;;;;;;;;;;;;;;18.28;43.60;101271.72;6250220;23;19986;-73
2022/02/02 11:56:52;;;;;;;;;;;;;;;18.76;42.92;101273.53;6220581;23;19915;-72
2022/02/02 11:59:36;;;;;;;;;;;;;;;18.60;42.61;101259.09;6249008;23;19908;-72
2022/02/02 12:02:12;;;;;;;;;;;;;;;18.36;42.40;101252.81;6221172;23;19907;-72
2022/02/02 12:04:53;;;;;;;;;;;;;;;18.29;43.38;101253.16;6246974;23;20254;-75
2022/02/02 12:07:41;;;;;;;;;;;;;;;18.60;44.19;101258.25;6249646;23;19918;-73
2022/02/02 12:10:15;;;;;;;;;;;;;;;19.45;42.29;101247.16;6249755;23;19908;-73
2022/02/02 12:21:25;;;;;;;;;;;;;;;23.90;34.25;101257.75;6249183;23;19934;-74
2022/02/02 12:48:41;;;;;;;;;;;;;;;29.82;26.66;101219.94;6087385;23;19909;-75
2022/02/02 12:54:17;;;;;;;;;;;;;;;30.82;23.81;101220.50;6226900;23;19919;-73
2022/02/02 12:56:38;;;;;;;;;;;;;;;31.38;23.42;101207.38;6224881;23;19915;-73
2022/02/02 12:59:55;;;;;;;;;;;;;;;31.42;21.48;101190.44;6220848;23;19911;-75
2022/02/02 13:02:26;;;;;;;;;;;;;;;31.03;22.74;101174.78;6232943;23;20408;-75
2022/02/02 13:04:56;;;;;;;;;;;;;;;30.79;22.30;101176.91;6157411;23;19914;-73
2022/02/02 13:07:22;;;;;;;;;;;;;;;30.53;23.15;101160.09;6251318;23;19915;-76
2022/02/02 13:09:48;;;;;;;;;;;;;;;31.17;24.14;101167.63;6247502;23;19912;-74
2022/02/02 13:12:33;;;;;;;;;;;;;;;32.08;24.07;101173.53;6221433;23;19908;-74
2022/02/02 13:15:26;;;;;;;;;;;;;;;32.80;22.94;101168.16;6254567;23;19935;-73
2022/02/02 13:21:35;;;;;;;;;;;;;;;34.24;20.10;101158.69;6135513;23;20390;-74
2022/02/02 13:24:31;;;;;;;;;;;;;;;33.58;18.59;101146.72;6135815;23;20309;-74
2022/02/02 13:27:17;;;;;;;;;;;;;;;32.63;19.47;101135.72;6254215;23;19931;-75
2022/02/02 13:29:54;;;;;;;;;;;;;;;32.35;20.14;101133.66;6248244;23;20365;-75
2022/02/02 13:32:38;;;;;;;;;;;;;;;;;;;;;
2022/02/02 13:47:37;;;;;;;;;;;;;;;30.94;22.14;101129.06;6143628;23;19913;-73
2022/02/02 13:52:31;;;;;;;;;;;;;;;31.83;21.63;101109.19;6164065;23;19920;-74
2022/02/02 13:55:13;;;;;;;;;;;;;;;32.18;20.54;101112.56;6222279;23;19987;-74
2022/02/02 14:11:26;;;;;;;;;;;;;;;34.65;17.79;101117.53;6249613;23;19935;-74
2022/02/02 14:33:28;;;;;;;;;;;;;;;30.29;21.39;101119.91;6114016;23;20283;-73
2022/02/02 14:35:58;;;;;;;;;;;;;;;29.54;21.59;101122.50;6129451;23;19917;-72
2022/02/02 14:38:23;;;;;;;;;;;;;;;28.85;23.20;101114.91;6187927;23;19908;-72
2022/02/02 14:43:16;;;;;;;;;;;;;;;28.24;24.33;101105.28;6251388;23;20203;-73
2022/02/02 14:45:53;;;;;;;;;;;;;;;28.66;23.95;101110.97;6262222;23;19917;-76
2022/02/02 14:48:32;;;;;;;;;;;;;;;28.65;23.13;101120.59;6261564;23;19962;-75
2022/02/02 14:54:10;;;;;;;;;;;;;;;27.89;24.26;101109.78;6231010;23;19934;-75
2022/02/02 15:29:42;;;;;;;;;;;;;;;20.84;34.25;101072.72;6257789;23;19914;-74
2022/02/02 15:32:10;;;;;;;;;;;;;;;20.05;36.49;101069.44;6231586;23;19919;-76
2022/02/02 15:34:41;;;;;;;;;;;;;;;19.97;37.16;101075.72;6230482;23;19992;-75
2022/02/02 15:39:55;;;;;;;;;;;;;;;20.34;36.76;101075.66;6267770;23;19935;-75
2022/02/02 15:58:32;;;;;;;;;;;;;;;17.91;40.41;101042.84;6234000;23;19926;-77
2022/02/02 16:03:27;;;;;;;;;;;;;;;16.50;43.04;101047.56;6266403;23;19918;-76
2022/02/02 16:05:58;;;;;;;;;;;;;;;15.77;45.60;101038.22;6229977;23;19915;-76
2022/02/02 16:08:26;;;;;;;;;;;;;;;15.27;46.02;101035.44;6257125;23;20331;-76
2022/02/02 16:13:30;;;;;;;;;;;;;;;14.42;48.71;101030.72;6266372;23;19912;-76
2022/02/02 16:16:11;;;;;;;;;;;;;;;14.00;50.77;101024.41;6231709;23;19912;-76
2022/02/02 16:37:46;;;;;;;;;;;;;;;12.39;55.44;101029.53;6267303;23;19912;-74
2022/02/02 16:43:22;;;;;;;;;;;;;;;12.17;55.37;101040.63;6241891;23;19915;-75
2022/02/02 16:45:52;;;;;;;;;;;;;;;12.07;56.29;101044.09;6231346;23;19911;-75
2022/02/02 16:58:02;;;;;;;;;;;;;;;11.70;56.91;101029.19;6165210;23;19968;-75
2022/02/02 17:33:50;;;;;;;;;;;;;;;11.03;58.73;101024.91;6154648;23;19907;-78
2022/02/02 18:20:07;;;;;;;;;;;;;;;11.68;57.67;101039.59;6136073;23;19936;-75
2022/02/02 18:35:47;;;;;;;;;;;;;;;;;;;;;
2022/02/02 21:18:41;;;;;;;;;;;;;;;10.86;63.11;100948.31;6196069;22;19947;-74
2022/02/02 21:21:22;;;;;;;;;;;;;;;10.85;63.52;100946.69;6204431;23;20317;-75
2022/02/02 21:24:33;;;;;;;;;;;;;;;10.86;63.09;100951.06;6205607;23;19919;-74
2022/02/02 21:29:47;;;;;;;;;;;;;;;10.83;63.60;100943.38;6236758;23;20302;-73
2022/02/02 21:32:33;;;;;;;;;;;;;;;10.83;63.22;100943.38;6221767;23;19966;-73
2022/02/02 21:35:07;;;;;;;;;;;;;;;10.84;63.17;100942.28;6223647;23;20502;-74
2022/02/02 21:37:36;;;;;;;;;;;;;;;10.83;63.54;100935.16;6246945;23;19919;-75
2022/02/02 21:40:17;;;;;;;;;;;;;;;10.80;63.77;100935.69;6249235;23;19912;-75
2022/02/02 21:42:56;;;;;;;;;;;;;;;;;;;;;
2022/02/02 21:45:48;;;;;;;;;;;;;;;10.83;63.56;100932.44;6247438;23;20330;-74
2022/02/02 21:48:17;;;;;;;;;;;;;;;10.85;63.51;100930.28;6247654;23;20035;-76
2022/02/02 21:51:13;;;;;;;;;;;;;;;10.89;63.79;100931.41;6249174;23;19911;-72
2022/02/02 21:53:43;;;;;;;;;;;;;;;10.93;63.78;100935.28;6244236;23;19907;-72
2022/02/02 21:56:22;;;;;;;;;;;;;;;;;;;;;
2022/02/02 21:58:51;;;;;;;;;;;;;;;11.02;63.38;100915.69;6250356;23;19958;-71
2022/02/02 22:01:24;;;;;;;;;;;;;;;11.04;63.26;100914.34;6250694;23;19907;-74
2022/02/02 22:03:49;;;;;;;;;;;;;;;11.07;63.42;100910.25;6197540;23;20246;-73
2022/02/02 22:06:17;;;;;;;;;;;;;;;11.09;63.29;100911.66;6223167;23;19914;-72
2022/02/02 22:08:43;;;;;;;;;;;;;;;11.10;63.12;100902.38;6249736;23;19922;-73
2022/02/02 22:11:15;;;;;;;;;;;;;;;11.10;62.80;100896.06;6248076;23;19942;-74
2022/02/02 22:13:48;;;;;;;;;;;;;;;11.08;62.67;100890.00;6247917;23;19922;-74
2022/02/02 22:16:19;;;;;;;;;;;;;;;11.10;63.58;100904.28;6225077;23;20074;-76
2022/02/02 22:18:47;;;;;;;;;;;;;;;11.06;63.26;100892.19;6250686;22;19994;-75
2022/02/02 22:21:30;;;;;;;;;;;;;;;11.02;63.40;100880.09;6229211;23;20267;-76
2022/02/02 22:24:00;;;;;;;;;;;;;;;10.99;63.04;100876.81;6224173;23;19966;-75
2022/02/02 22:26:26;;;;;;;;;;;;;;;10.99;63.48;100887.75;6249829;23;19908;-74
2022/02/02 22:29:14;;;;;;;;;;;;;;;11.01;63.33;100882.03;6253810;23;19922;-73
2022/02/02 22:31:55;;;;;;;;;;;;;;;11.00;62.83;100883.91;6226973;23;20258;-75
2022/02/02 22:34:43;;;;;;;;;;;;;;;11.02;63.13;100875.44;6250485;23;19907;-73
2022/02/02 22:37:10;;;;;;;;;;;;;;;10.97;63.25;100865.28;6206776;23;19908;-73
2022/02/02 22:39:50;;;;;;;;;;;;;;;;;;;;;
2022/02/02 22:42:17;;;;;;;;;;;;;;;10.93;63.07;100866.88;6247168;23;19995;-75
2022/02/02 22:44:55;;;;;;;;;;;;;;;;;;;;;
2022/02/02 22:47:46;;;;;;;;;;;;;;;10.82;63.05;100862.41;6248186;23;19979;-74
2022/02/02 22:50:24;;;;;;;;;;;;;;;;;;;;;
2022/02/02 22:52:56;;;;;;;;;;;;;;;10.73;63.11;100861.19;6250320;23;19927;-73
2022/02/02 22:55:41;;;;;;;;;;;;;;;10.70;63.07;100856.22;6219192;23;20005;-73
2022/02/02 22:58:09;;;;;;;;;;;;;;;10.68;63.09;100855.66;6247984;23;19946;-73
2022/02/02 23:00:40;;;;;;;;;;;;;;;10.65;62.96;100855.09;6225470;23;19907;-74
2022/02/02 23:06:05;;;;;;;;;;;;;;;;;;;;;
2022/02/02 23:08:53;;;;;;;;;;;;;;;10.61;63.18;100837.53;6250479;23;20320;-74
2022/02/02 23:11:26;;;;;;;;;;;;;;;10.58;62.91;100821.63;6231091;23;19912;-75
2022/02/02 23:14:08;;;;;;;;;;;;;;;10.58;62.75;100821.63;6256024;23;20036;-73
2022/02/02 23:16:45;;;;;;;;;;;;;;;10.57;63.18;100820.00;6203360;23;19912;-71
2022/02/02 23:19:13;;;;;;;;;;;;;;;10.58;63.02;100821.63;6200510;23;19927;-74
2022/02/02 23:21:38;;;;;;;;;;;;;;;10.59;62.79;100817.81;6254753;23;19915;-73
2022/02/02 23:24:10;;;;;;;;;;;;;;;10.61;62.85;100810.19;6255465;23;19982;-73
2022/02/02 23:26:36;;;;;;;;;;;;;;;10.62;63.00;100808.28;6228983;23;20315;-73
2022/02/02 23:29:08;;;;;;;;;;;;;;;10.64;63.01;100808.84;6254780;23;19912;-72
2022/02/02 23:31:33;;;;;;;;;;;;;;;10.67;62.54;100802.84;6250915;23;20434;-74
2022/02/02 23:34:01;;;;;;;;;;;;;;;10.71;62.70;100803.19;6197824;23;19920;-72
2022/02/02 23:36:27;;;;;;;;;;;;;;;10.73;62.94;100796.38;6227314;23;19911;-69
2022/02/02 23:38:54;;;;;;;;;;;;;;;10.73;62.45;100803.75;6222015;23;19939;-72
2022/02/02 23:44:25;;;;;;;;;;;;;;;10.63;62.72;100813.50;6260514;23;20347;-70
2022/02/02 23:46:53;;;;;;;;;;;;;;;10.62;62.35;100803.63;6202842;23;19935;-71
2022/02/02 23:49:22;;;;;;;;;;;;;;;10.60;62.93;100794.88;6253328;23;19908;-72
2022/02/02 23:52:06;;;;;;;;;;;;;;;10.60;62.94;100803.06;6229346;23;19907;-74
